Time;durP1;ratioP1;P1;durP2;ratioP2;P2;SDS_P1;SDS_P2;PMS_P1;PMS_P2;Temp;Humidity;BMP_temperature;BMP_pressure;BME280_temperature;BME280_humidity;BME280_pressure;Samples;Min_cycle;Max_cycle;Signal;HPM_P1;HPM_P2
2021/09/29 00:00:28;;;;;;;18.17;12.63;;;11.50;99.90;;;;;;5050769;28;20197;-64
2021/09/29 00:02:54;;;;;;;17.90;12.83;;;11.60;99.90;;;;;;5051006;28;20175;-63
2021/09/29 00:05:20;;;;;;;13.00;11.23;;;11.50;99.90;;;;;;5051308;28;20175;-64
2021/09/29 00:07:45;;;;;;;17.57;13.03;;;11.50;99.90;;;;;;5051346;28;20209;-64
2021/09/29 00:10:12;;;;;;;12.93;11.73;;;11.40;99.90;;;;;;5050622;28;20591;-64
2021/09/29 00:12:38;;;;;;;21.87;13.30;;;11.40;99.90;;;;;;5051175;28;20170;-63
2021/09/29 00:15:10;;;;;;;18.50;13.07;;;11.40;99.90;;;;;;5051216;28;20582;-64
2021/09/29 00:17:37;;;;;;;17.63;13.53;;;11.40;99.90;;;;;;5051063;28;20218;-63
2021/09/29 00:20:05;;;;;;;15.60;13.77;;;11.40;99.90;;;;;;5050865;28;20586;-64
2021/09/29 00:22:31;;;;;;;14.13;12.67;;;11.30;99.90;;;;;;5050862;28;20216;-64
2021/09/29 00:24:57;;;;;;;17.03;11.80;;;11.30;99.90;;;;;;5051102;28;20171;-64
2021/09/29 00:27:22;;;;;;;14.47;11.23;;;11.30;99.90;;;;;;5050971;28;20211;-63
2021/09/29 00:29:50;;;;;;;16.53;12.73;;;11.30;99.90;;;;;;5050408;28;20179;-64
2021/09/29 00:32:18;;;;;;;16.17;13.13;;;11.20;99.90;;;;;;5054205;28;20279;-64
2021/09/29 00:34:44;;;;;;;18.17;12.80;;;11.20;99.90;;;;;;5054639;28;20179;-64
2021/09/29 00:37:10;;;;;;;21.67;11.90;;;11.20;99.90;;;;;;5054494;28;20533;-64
2021/09/29 00:39:36;;;;;;;18.60;11.50;;;11.10;99.90;;;;;;5054518;28;20194;-63
2021/09/29 00:42:03;;;;;;;22.47;11.20;;;11.10;99.90;;;;;;5054549;28;20210;-64
2021/09/29 00:44:29;;;;;;;17.00;12.50;;;11.10;99.90;;;;;;5054425;28;20175;-63
2021/09/29 00:46:55;;;;;;;18.17;11.27;;;11.10;99.90;;;;;;5054313;28;20211;-64
2021/09/29 00:49:20;;;;;;;20.07;12.50;;;11.10;99.90;;;;;;5054546;28;20171;-64
2021/09/29 00:51:46;;;;;;;23.37;12.40;;;11.10;99.90;;;;;;5054169;28;20253;-64
2021/09/29 00:54:12;;;;;;;16.60;10.97;;;11.00;99.90;;;;;;5054678;28;20170;-64
2021/09/29 00:56:37;;;;;;;19.13;13.13;;;11.00;99.90;;;;;;5054470;28;20179;-64
2021/09/29 00:59:04;;;;;;;16.23;12.70;;;11.00;99.90;;;;;;5054134;28;20179;-64
2021/09/29 01:01:30;;;;;;;14.83;12.87;;;10.90;99.90;;;;;;5053951;28;20249;-64
2021/09/29 01:03:57;;;;;;;20.97;12.90;;;10.80;99.90;;;;;;5054378;28;20544;-64
2021/09/29 01:06:36;;;;;;;15.67;11.43;;;10.80;99.90;;;;;;5054049;28;20211;-64
2021/09/29 01:09:14;;;;;;;21.73;13.17;;;10.80;99.90;;;;;;5054089;28;20295;-63
2021/09/29 01:11:59;;;;;;;16.63;12.50;;;10.80;99.90;;;;;;5054066;28;20194;-64
2021/09/29 01:14:36;;;;;;;14.87;12.13;;;10.70;99.90;;;;;;5053890;28;20225;-64
2021/09/29 01:17:03;;;;;;;15.37;11.83;;;10.70;99.90;;;;;;5034184;28;20282;-64
2021/09/29 01:19:53;;;;;;;15.97;12.53;;;10.70;99.90;;;;;;5034280;28;20736;-64
2021/09/29 01:22:53;;;;;;;16.27;12.20;;;10.70;99.90;;;;;;5034110;28;20207;-64
2021/09/29 01:25:44;;;;;;;15.77;12.63;;;10.70;99.90;;;;;;5040313;28;20175;-64
2021/09/29 01:28:10;;;;;;;18.80;12.77;;;10.70;99.90;;;;;;5054094;28;20194;-64
2021/09/29 01:30:37;;;;;;;16.53;11.83;;;10.80;99.90;;;;;;5053331;28;20590;-63
2021/09/29 01:33:03;;;;;;;14.83;12.57;;;10.70;99.90;;;;;;5053812;28;20175;-64
2021/09/29 01:35:29;;;;;;;18.10;12.57;;;10.70;99.90;;;;;;5052820;28;20189;-64
2021/09/29 01:37:55;;;;;;;15.50;12.03;;;10.70;99.90;;;;;;5053974;28;20540;-64
2021/09/29 01:40:21;;;;;;;20.60;12.67;;;10.70;99.90;;;;;;5053034;28;20199;-63
2021/09/29 01:42:48;;;;;;;20.87;13.63;;;10.70;99.90;;;;;;5052967;28;20175;-64
2021/09/29 01:45:13;;;;;;;15.97;12.93;;;10.80;99.90;;;;;;5053509;28;20186;-64
2021/09/29 01:47:39;;;;;;;17.37;12.97;;;10.80;99.90;;;;;;5053750;28;20573;-64
2021/09/29 01:50:07;;;;;;;17.60;13.30;;;10.80;99.90;;;;;;5052900;28;20241;-64
2021/09/29 01:52:36;;;;;;;17.50;13.50;;;10.80;99.90;;;;;;5053277;28;20207;-63
2021/09/29 01:55:03;;;;;;;17.07;12.93;;;10.80;99.90;;;;;;5053404;28;20240;-64
2021/09/29 01:57:29;;;;;;;21.27;13.13;;;10.80;99.90;;;;;;5053318;28;20193;-64
2021/09/29 01:59:55;;;;;;;14.67;12.97;;;10.80;99.90;;;;;;5052878;28;20209;-64
2021/09/29 02:02:21;;;;;;;18.30;14.07;;;10.80;99.90;;;;;;5053260;28;20234;-63
2021/09/29 02:04:49;;;;;;;21.43;15.03;;;10.80;99.90;;;;;;5053200;28;20175;-63
2021/09/29 02:07:15;;;;;;;15.57;14.03;;;10.90;99.90;;;;;;5033428;28;20214;-64
2021/09/29 02:09:41;;;;;;;15.13;13.03;;;10.80;99.90;;;;;;5033434;28;20175;-63
2021/09/29 02:12:07;;;;;;;21.13;13.10;;;10.80;99.90;;;;;;5051694;28;20214;-63
2021/09/29 02:14:33;;;;;;;20.03;14.37;;;10.80;99.90;;;;;;5054255;28;20248;-66
2021/09/29 02:16:59;;;;;;;19.73;15.53;;;10.70;99.90;;;;;;5054176;28;20558;-67
2021/09/29 02:19:26;;;;;;;20.60;16.10;;;10.70;99.90;;;;;;5054202;28;20175;-65
2021/09/29 02:21:53;;;;;;;23.20;16.83;;;10.70;99.90;;;;;;5053921;28;20651;-67
2021/09/29 02:24:19;;;;;;;19.03;15.80;;;10.60;99.90;;;;;;5053786;28;20228;-68
2021/09/29 02:26:45;;;;;;;22.40;15.57;;;10.70;99.90;;;;;;5053779;28;20210;-66
2021/09/29 02:29:13;;;;;;;21.77;15.33;;;10.60;99.90;;;;;;5053543;28;20170;-67
2021/09/29 02:31:39;;;;;;;22.80;15.97;;;10.60;99.90;;;;;;5053806;28;20685;-67
2021/09/29 02:34:05;;;;;;;17.90;16.03;;;10.60;99.90;;;;;;5053560;28;20255;-66
2021/09/29 02:36:31;;;;;;;17.70;15.27;;;10.50;99.90;;;;;;5052837;28;20257;-66
2021/09/29 02:38:56;;;;;;;22.30;17.33;;;10.50;99.90;;;;;;5053649;28;20605;-68
2021/09/29 02:41:24;;;;;;;19.57;16.83;;;10.50;99.90;;;;;;5053443;28;20211;-69
2021/09/29 02:43:50;;;;;;;23.23;17.37;;;10.40;99.90;;;;;;5053396;28;20182;-66
2021/09/29 02:46:15;;;;;;;22.33;14.90;;;10.40;99.90;;;;;;5053247;28;20282;-68
2021/09/29 02:48:41;;;;;;;20.83;15.13;;;10.40;99.90;;;;;;5053699;28;20182;-67
2021/09/29 02:51:07;;;;;;;18.20;16.23;;;10.30;99.90;;;;;;5052886;28;20199;-65
2021/09/29 02:53:33;;;;;;;19.80;16.23;;;10.30;99.90;;;;;;5053493;28;20269;-66
2021/09/29 02:56:00;;;;;;;20.10;14.73;;;10.40;99.90;;;;;;5053567;28;20256;-68
2021/09/29 02:58:26;;;;;;;25.00;16.87;;;10.30;99.90;;;;;;5053816;28;20186;-66
2021/09/29 03:00:53;;;;;;;21.23;18.60;;;10.30;99.90;;;;;;5053038;28;20205;-67
2021/09/29 03:03:20;;;;;;;16.90;15.20;;;10.30;99.90;;;;;;5053613;28;20644;-68
2021/09/29 03:05:46;;;;;;;15.60;14.20;;;10.40;99.90;;;;;;5053268;28;20543;-68
2021/09/29 03:08:12;;;;;;;15.63;14.03;;;10.40;99.90;;;;;;5053239;28;20229;-68
2021/09/29 03:10:40;;;;;;;16.37;14.57;;;10.40;99.90;;;;;;5052692;28;20656;-66
2021/09/29 03:13:06;;;;;;;16.37;14.37;;;10.40;99.90;;;;;;5053548;28;20178;-67
2021/09/29 03:15:32;;;;;;;18.27;14.00;;;10.30;99.90;;;;;;5053047;28;20532;-68
2021/09/29 03:17:58;;;;;;;17.33;14.53;;;10.30;99.90;;;;;;5053428;28;20228;-68
2021/09/29 03:20:25;;;;;;;20.03;14.57;;;10.20;99.90;;;;;;5052711;28;20214;-67
2021/09/29 03:22:54;;;;;;;16.27;14.83;;;10.20;99.90;;;;;;5052777;28;20183;-69
2021/09/29 03:25:21;;;;;;;22.73;15.63;;;10.20;99.90;;;;;;5052647;28;20178;-67
2021/09/29 03:27:47;;;;;;;17.53;15.17;;;10.10;99.90;;;;;;5052951;28;20249;-69
2021/09/29 03:30:13;;;;;;;18.47;14.27;;;10.10;99.90;;;;;;5052423;28;20189;-66
2021/09/29 03:32:39;;;;;;;19.17;15.13;;;10.10;99.90;;;;;;5053508;28;20244;-68
2021/09/29 03:35:05;;;;;;;19.40;15.37;;;10.10;99.90;;;;;;5033513;28;20262;-69
2021/09/29 03:37:31;;;;;;;20.57;14.40;;;10.10;99.90;;;;;;5053490;28;20170;-67
2021/09/29 03:39:56;;;;;;;22.37;16.20;;;10.10;99.90;;;;;;5052306;28;20189;-66
2021/09/29 03:42:22;;;;;;;21.37;14.47;;;10.10;99.90;;;;;;5052747;28;20211;-66
2021/09/29 03:44:47;;;;;;;17.87;14.80;;;10.00;99.90;;;;;;5052481;28;20543;-67
2021/09/29 03:47:13;;;;;;;15.97;14.33;;;10.10;99.90;;;;;;5052758;28;20202;-69
2021/09/29 03:49:39;;;;;;;32.40;16.27;;;10.10;99.90;;;;;;5052272;28;20186;-67
2021/09/29 03:52:05;;;;;;;20.13;14.30;;;10.10;99.90;;;;;;5052702;28;20274;-66
2021/09/29 03:54:31;;;;;;;15.20;13.77;;;10.10;99.90;;;;;;5052908;28;20187;-69
2021/09/29 03:56:58;;;;;;;17.47;14.60;;;10.10;99.90;;;;;;5052272;28;20175;-61
2021/09/29 03:59:24;;;;;;;22.87;15.60;;;10.10;99.90;;;;;;5051137;28;20574;-61
2021/09/29 04:01:50;;;;;;;17.90;14.57;;;10.10;99.90;;;;;;5051074;28;20202;-63
2021/09/29 04:04:15;;;;;;;16.87;14.23;;;10.20;99.90;;;;;;5051146;28;20221;-62
2021/09/29 04:06:41;;;;;;;16.70;14.93;;;10.10;99.90;;;;;;5053986;28;20266;-61
2021/09/29 04:09:06;;;;;;;18.93;14.83;;;10.20;99.90;;;;;;5054420;28;20175;-63
2021/09/29 04:11:33;;;;;;;16.07;14.33;;;10.20;99.90;;;;;;5055446;28;20199;-63
2021/09/29 04:13:59;;;;;;;21.07;14.80;;;10.20;99.90;;;;;;5055057;28;20185;-63
2021/09/29 04:16:25;;;;;;;16.87;14.40;;;10.20;99.90;;;;;;5055324;28;20182;-63
2021/09/29 04:18:50;;;;;;;20.03;14.40;;;10.10;99.90;;;;;;5055189;28;20209;-62
2021/09/29 04:21:16;;;;;;;25.53;14.93;;;10.20;99.90;;;;;;5054977;28;20198;-63
2021/09/29 04:23:42;;;;;;;19.80;14.70;;;10.20;99.90;;;;;;5055020;28;20189;-63
2021/09/29 04:26:07;;;;;;;19.93;15.27;;;10.20;99.90;;;;;;5055133;28;20295;-63
2021/09/29 04:28:35;;;;;;;18.40;15.63;;;10.20;99.90;;;;;;5054815;28;20660;-63
2021/09/29 04:31:02;;;;;;;19.70;14.50;;;10.20;99.90;;;;;;5054666;28;20259;-63
2021/09/29 04:33:28;;;;;;;19.17;15.07;;;10.20;99.90;;;;;;5054925;28;20179;-63
2021/09/29 04:35:54;;;;;;;16.80;15.10;;;10.20;99.90;;;;;;5054966;28;20220;-63
2021/09/29 04:38:20;;;;;;;18.03;15.53;;;10.10;99.90;;;;;;5054681;28;20182;-63
2021/09/29 04:40:45;;;;;;;17.67;15.33;;;10.10;99.90;;;;;;5054358;28;20552;-63
2021/09/29 04:43:11;;;;;;;19.93;15.03;;;10.10;99.90;;;;;;5054562;28;20217;-63
2021/09/29 04:45:37;;;;;;;19.97;15.03;;;10.10;99.90;;;;;;5054760;28;20236;-63
2021/09/29 04:48:07;;;;;;;16.20;14.37;;;10.00;99.90;;;;;;5054464;28;20277;-63
2021/09/29 04:50:33;;;;;;;21.40;15.53;;;10.10;99.90;;;;;;5054373;28;20610;-63
2021/09/29 04:52:59;;;;;;;20.23;14.97;;;10.00;99.90;;;;;;5054359;28;20204;-63
2021/09/29 04:55:25;;;;;;;18.97;14.53;;;10.00;99.90;;;;;;5054484;28;20171;-63
2021/09/29 04:57:51;;;;;;;20.77;15.87;;;10.00;99.90;;;;;;5054511;28;20673;-63
2021/09/29 05:00:18;;;;;;;21.47;14.83;;;10.00;99.90;;;;;;5054139;28;20171;-63
2021/09/29 05:02:45;;;;;;;21.00;16.07;;;10.00;99.90;;;;;;5054250;28;20194;-63
2021/09/29 05:05:12;;;;;;;17.40;15.63;;;10.00;99.90;;;;;;5054514;28;20174;-63
2021/09/29 05:07:40;;;;;;;18.47;15.60;;;10.00;99.90;;;;;;5053942;28;20211;-63
2021/09/29 05:10:14;;;;;;;24.17;16.40;;;10.00;99.90;;;;;;5053888;28;20214;-63
2021/09/29 05:12:40;;;;;;;21.37;16.40;;;10.00;99.90;;;;;;5054131;28;20175;-63
2021/09/29 05:15:06;;;;;;;22.40;15.83;;;10.10;99.90;;;;;;5054202;28;20543;-63
2021/09/29 05:17:31;;;;;;;17.53;15.87;;;10.10;99.90;;;;;;5054011;28;20276;-63
2021/09/29 05:19:57;;;;;;;16.97;15.17;;;10.20;99.90;;;;;;5053892;28;20266;-63
2021/09/29 05:22:22;;;;;;;21.17;15.67;;;10.30;99.90;;;;;;5054084;28;20783;-63
2021/09/29 05:24:48;;;;;;;17.90;15.07;;;10.30;99.90;;;;;;5053995;28;20182;-63
2021/09/29 05:27:14;;;;;;;20.73;15.63;;;10.40;99.90;;;;;;5053991;28;20217;-63
2021/09/29 05:29:46;;;;;;;25.27;16.13;;;10.50;99.90;;;;;;5053604;28;20272;-62
2021/09/29 05:32:11;;;;;;;19.80;15.53;;;10.60;99.90;;;;;;5053842;28;20256;-63
2021/09/29 05:34:37;;;;;;;21.27;15.50;;;10.60;99.90;;;;;;5053582;28;20175;-62
2021/09/29 05:37:03;;;;;;;19.77;14.70;;;10.70;99.90;;;;;;5053640;28;20285;-63
2021/09/29 05:39:28;;;;;;;20.20;14.57;;;10.80;99.90;;;;;;5053634;28;20674;-62
2021/09/29 05:41:54;;;;;;;18.40;13.13;;;10.90;99.90;;;;;;5053257;28;20206;-62
2021/09/29 05:44:20;;;;;;;17.30;13.83;;;10.90;99.90;;;;;;5053430;28;20187;-63
2021/09/29 05:46:45;;;;;;;16.60;13.77;;;11.00;99.90;;;;;;5053706;28;20213;-63
2021/09/29 05:49:11;;;;;;;18.03;13.57;;;11.10;99.90;;;;;;5053415;28;20171;-63
2021/09/29 05:51:37;;;;;;;18.10;13.27;;;11.10;99.90;;;;;;5052749;28;20231;-63
2021/09/29 05:54:02;;;;;;;14.87;13.30;;;11.20;99.90;;;;;;5047242;28;20259;-63
2021/09/29 05:56:28;;;;;;;14.47;13.13;;;11.20;99.90;;;;;;5033491;28;20318;-63
2021/09/29 05:58:54;;;;;;;16.23;13.90;;;11.30;99.90;;;;;;5046182;28;20652;-63
2021/09/29 06:01:19;;;;;;;15.20;13.70;;;11.30;99.90;;;;;;5041473;28;20607;-63
2021/09/29 06:03:45;;;;;;;15.70;14.30;;;11.40;99.90;;;;;;5047468;28;20172;-63
2021/09/29 06:06:10;;;;;;;17.23;13.37;;;11.40;99.90;;;;;;5044393;28;20313;-63
2021/09/29 06:08:36;;;;;;;17.50;13.90;;;11.40;99.90;;;;;;5051489;28;20193;-63
2021/09/29 06:11:02;;;;;;;29.40;17.47;;;11.40;99.90;;;;;;5052448;28;20198;-63
2021/09/29 06:13:27;;;;;;;17.00;15.23;;;11.40;99.90;;;;;;5053325;28;20195;-63
2021/09/29 06:15:53;;;;;;;16.83;14.60;;;11.40;99.90;;;;;;5052810;28;20175;-63
2021/09/29 06:18:19;;;;;;;37.13;16.27;;;11.30;99.90;;;;;;5052447;28;20461;-63
2021/09/29 06:20:50;;;;;;;16.77;14.00;;;11.30;99.90;;;;;;5052223;28;20202;-63
2021/09/29 06:23:17;;;;;;;21.27;15.00;;;11.30;99.90;;;;;;5051852;28;20175;-63
2021/09/29 06:25:43;;;;;;;17.07;14.00;;;11.30;99.90;;;;;;5052739;28;20171;-63
2021/09/29 06:28:09;;;;;;;20.20;15.10;;;11.30;99.90;;;;;;5044917;28;20543;-63
2021/09/29 06:30:35;;;;;;;18.43;14.87;;;11.30;99.90;;;;;;5032210;28;20201;-63
2021/09/29 06:33:01;;;;;;;19.00;14.87;;;11.30;99.90;;;;;;5032693;28;20171;-63
2021/09/29 06:35:29;;;;;;;20.03;15.57;;;11.30;99.90;;;;;;5032102;28;20176;-63
2021/09/29 06:38:00;;;;;;;18.77;14.40;;;11.30;99.90;;;;;;5047232;28;20243;-63
2021/09/29 06:40:26;;;;;;;17.13;14.80;;;11.30;99.90;;;;;;5035006;28;20206;-62
2021/09/29 06:42:52;;;;;;;20.70;15.30;;;11.30;99.90;;;;;;5038197;28;20265;-63
2021/09/29 06:45:18;;;;;;;21.97;15.93;;;11.30;99.90;;;;;;5032686;28;20211;-63
2021/09/29 06:47:45;;;;;;;18.20;14.50;;;11.30;99.90;;;;;;5044676;28;20301;-63
2021/09/29 06:50:12;;;;;;;19.80;16.33;;;11.40;99.90;;;;;;5051976;28;20177;-63
2021/09/29 06:52:38;;;;;;;18.03;16.13;;;11.40;99.90;;;;;;5041193;28;20245;-62
2021/09/29 06:55:06;;;;;;;29.27;26.37;;;11.50;99.90;;;;;;5032274;28;20178;-63
2021/09/29 06:57:32;;;;;;;19.50;17.67;;;11.50;99.90;;;;;;5048941;28;20178;-63
2021/09/29 06:59:58;;;;;;;20.03;16.97;;;11.50;99.90;;;;;;5051845;28;20197;-63
2021/09/29 07:02:24;;;;;;;23.17;15.87;;;11.50;99.90;;;;;;5036838;28;20203;-63
2021/09/29 07:04:49;;;;;;;28.97;16.70;;;11.50;99.90;;;;;;5032168;28;20267;-63
2021/09/29 07:07:15;;;;;;;17.97;16.07;;;11.60;99.90;;;;;;5043604;28;20292;-63
2021/09/29 07:09:41;;;;;;;21.73;15.83;;;11.50;99.90;;;;;;5031852;28;20174;-63
2021/09/29 07:12:08;;;;;;;22.13;19.97;;;11.60;99.90;;;;;;5043238;28;20230;-63
2021/09/29 07:14:34;;;;;;;18.53;16.57;;;11.70;99.90;;;;;;5051838;28;20170;-63
2021/09/29 07:17:00;;;;;;;22.20;15.47;;;11.80;99.90;;;;;;5041545;28;20233;-63
2021/09/29 07:19:27;;;;;;;16.17;14.60;;;11.80;99.90;;;;;;5031879;28;20179;-63
2021/09/29 07:21:52;;;;;;;25.57;14.67;;;11.90;99.90;;;;;;5040598;28;20199;-63
2021/09/29 07:24:19;;;;;;;16.30;14.53;;;11.90;99.90;;;;;;5046803;28;20233;-63
2021/09/29 07:26:44;;;;;;;18.53;14.97;;;11.90;99.90;;;;;;5031735;28;20210;-63
2021/09/29 07:29:10;;;;;;;67.57;40.87;;;11.90;99.90;;;;;;5034780;28;20179;-63
2021/09/29 07:31:40;;;;;;;30.10;23.93;;;11.90;99.90;;;;;;5051707;28;20190;-63
2021/09/29 07:34:09;;;;;;;21.63;15.27;;;11.90;99.90;;;;;;5049447;28;20175;-63
2021/09/29 07:36:38;;;;;;;17.17;14.57;;;12.00;99.90;;;;;;5030510;28;20237;-63
2021/09/29 07:39:04;;;;;;;18.67;16.53;;;12.00;99.90;;;;;;5032414;28;20187;-63
2021/09/29 07:41:29;;;;;;;20.10;14.80;;;12.10;99.90;;;;;;5050660;28;20248;-63
2021/09/29 07:43:55;;;;;;;16.17;13.77;;;12.20;99.90;;;;;;5051745;28;20186;-63
2021/09/29 07:46:21;;;;;;;21.03;15.77;;;12.20;99.90;;;;;;5032175;28;20211;-63
2021/09/29 07:48:46;;;;;;;20.50;14.17;;;12.30;99.90;;;;;;5031397;28;20198;-63
2021/09/29 07:51:15;;;;;;;18.40;16.23;;;12.30;99.90;;;;;;5032243;28;20334;-63
2021/09/29 07:53:41;;;;;;;17.77;15.83;;;12.30;99.90;;;;;;5031739;28;20171;-63
2021/09/29 07:56:08;;;;;;;19.90;16.23;;;12.40;99.90;;;;;;5047096;28;20197;-63
2021/09/29 07:58:34;;;;;;;21.13;13.80;;;12.40;99.90;;;;;;5051365;28;20179;-64
2021/09/29 08:01:00;;;;;;;21.63;18.40;;;12.40;99.90;;;;;;5035773;28;20688;-64
2021/09/29 08:03:27;;;;;;;20.47;16.53;;;12.40;99.90;;;;;;5031260;28;20550;-64
2021/09/29 08:05:55;;;;;;;20.83;18.73;;;12.40;99.90;;;;;;5038935;28;20183;-63
2021/09/29 08:08:21;;;;;;;21.37;16.43;;;12.30;99.90;;;;;;5051292;28;20608;-64
2021/09/29 08:10:46;;;;;;;20.87;15.03;;;12.30;99.90;;;;;;5039408;28;20199;-65
2021/09/29 08:13:12;;;;;;;15.27;13.80;;;12.30;99.90;;;;;;5035836;28;20174;-64
2021/09/29 08:15:37;;;;;;;23.93;17.70;;;12.30;99.90;;;;;;5031287;28;20251;-63
2021/09/29 08:18:03;;;;;;;29.00;24.60;;;12.30;99.90;;;;;;5034491;28;20174;-64
2021/09/29 08:20:33;;;;;;;20.93;16.77;;;12.30;99.90;;;;;;5050803;28;20746;-64
2021/09/29 08:23:05;;;;;;;18.40;16.13;;;12.30;99.90;;;;;;5048622;28;20175;-64
2021/09/29 08:31:00;;;;;;;24.97;16.17;;;12.40;99.90;;;;;;5047777;28;20289;-64
2021/09/29 08:36:09;;;;;;;20.23;17.37;;;12.50;99.90;;;;;;5044409;28;20182;-62
2021/09/29 08:38:38;;;;;;;18.57;16.67;;;12.60;99.90;;;;;;5050952;28;20257;-64
2021/09/29 08:44:07;;;;;;;21.37;15.60;;;12.80;99.90;;;;;;5050792;28;20163;-63
2021/09/29 08:49:19;;;;;;;20.80;18.17;;;12.80;99.90;;;;;;5050768;28;20167;-64
2021/09/29 08:52:10;;;;;;;18.37;16.27;;;12.90;99.90;;;;;;5051704;28;20195;-63
2021/09/29 09:16:35;;;;;;;22.43;20.27;;;13.00;99.90;;;;;;5034744;28;20281;-64
2021/09/29 09:19:04;;;;;;;22.90;16.90;;;13.10;99.90;;;;;;5033925;28;20644;-64
2021/09/29 09:21:36;;;;;;;24.23;14.73;;;13.00;99.90;;;;;;5054072;28;20201;-67
2021/09/29 09:24:19;;;;;;;12.90;11.70;;;13.10;99.90;;;;;;5054061;28;20171;-65
2021/09/29 09:27:00;;;;;;;12.17;10.43;;;12.90;99.90;;;;;;5033758;28;20225;-64
2021/09/29 09:29:26;;;;;;;9.80;8.80;;;12.70;99.90;;;;;;5036164;28;20180;-65
2021/09/29 09:31:54;;;;;;;8.87;8.20;;;12.70;99.90;;;;;;5053711;28;20729;-64
2021/09/29 09:34:19;;;;;;;7.03;6.40;;;12.40;99.90;;;;;;5053745;28;20229;-65
2021/09/29 09:36:48;;;;;;;6.93;6.53;;;12.20;99.90;;;;;;5052760;28;20183;-64
2021/09/29 09:39:18;;;;;;;6.80;6.50;;;12.10;99.90;;;;;;5053536;28;20265;-64
2021/09/29 09:44:11;;;;;;;9.63;9.00;;;12.10;99.90;;;;;;5052316;28;20535;-66
2021/09/29 09:46:37;;;;;;;8.13;7.63;;;12.10;99.90;;;;;;5053086;28;20289;-65
2021/09/29 09:49:08;;;;;;;6.40;6.10;;;12.20;99.90;;;;;;5053191;28;20175;-66
2021/09/29 09:51:48;;;;;;;7.57;6.97;;;12.20;99.90;;;;;;5053021;28;20226;-67
2021/09/29 09:54:14;;;;;;;8.23;7.30;;;12.20;99.90;;;;;;5053433;28;20632;-67
2021/09/29 09:56:42;;;;;;;7.70;7.10;;;12.20;99.90;;;;;;5052708;28;20174;-65
2021/09/29 09:59:08;;;;;;;7.60;7.00;;;12.20;99.90;;;;;;5053249;28;20171;-66
2021/09/29 10:01:35;;;;;;;10.50;9.63;;;12.10;99.90;;;;;;5037458;28;20207;-66
2021/09/29 10:04:09;;;;;;;8.50;8.00;;;12.20;99.90;;;;;;5032230;28;20207;-66
2021/09/29 10:06:35;;;;;;;7.80;7.40;;;12.20;99.90;;;;;;5047876;28;20248;-66
2021/09/29 10:09:09;;;;;;;7.10;6.60;;;12.30;99.90;;;;;;5052805;28;20174;-66
2021/09/29 10:14:36;;;;;;;7.03;6.63;;;12.60;99.90;;;;;;5045202;28;20185;-66
2021/09/29 10:28:07;;;;;;;5.80;5.40;;;14.90;99.90;;;;;;5032820;28;20207;-67
2021/09/29 10:30:38;;;;;;;6.17;5.87;;;14.70;99.90;;;;;;5049864;28;20253;-66
2021/09/29 10:33:05;;;;;;;5.70;5.40;;;14.70;99.90;;;;;;5032764;28;20164;-66
2021/09/29 11:30:24;;;;;;;6.10;5.80;;;16.50;99.90;;;;;;5031589;28;20207;-67
2021/09/29 11:35:31;;;;;;;7.60;7.17;;;15.90;99.90;;;;;;5032111;28;20175;-66
2021/09/29 12:11:11;;;;;;;6.40;6.00;;;14.70;99.90;;;;;;5030964;28;20195;-66
2021/09/29 12:14:05;;;;;;;5.90;5.60;;;14.70;99.90;;;;;;5030863;28;20172;-66
2021/09/29 12:16:36;;;;;;;6.77;6.27;;;14.80;99.90;;;;;;5031010;28;20184;-66
2021/09/29 12:19:05;;;;;;;6.17;5.70;;;15.00;99.90;;;;;;5031047;28;20175;-66
2021/09/29 12:21:42;;;;;;;6.57;6.07;;;15.20;99.90;;;;;;5031351;28;20230;-66
2021/09/29 12:24:10;;;;;;;5.73;5.37;;;15.60;99.90;;;;;;5031263;28;20179;-66
2021/09/29 12:26:45;;;;;;;5.00;4.70;;;16.30;99.90;;;;;;5032213;28;20203;-67
2021/09/29 12:29:24;;;;;;;5.70;5.20;;;16.80;99.90;;;;;;5035030;28;20163;-67
2021/09/29 12:31:57;;;;;;;6.13;5.33;;;17.30;99.90;;;;;;5035226;28;20190;-66
2021/09/29 12:34:28;;;;;;;6.10;5.60;;;17.50;99.90;;;;;;5035360;28;20168;-67
2021/09/29 12:36:54;;;;;;;6.37;5.73;;;17.10;99.90;;;;;;5034973;28;20206;-66
2021/09/29 12:39:22;;;;;;;5.93;5.43;;;16.80;99.90;;;;;;5034979;28;20204;-67
2021/09/29 12:41:53;;;;;;;5.83;5.33;;;16.90;99.90;;;;;;5035004;28;20194;-67
2021/09/29 12:44:19;;;;;;;5.77;5.37;;;17.10;99.90;;;;;;5035122;28;20180;-67
2021/09/29 12:47:21;;;;;;;6.47;6.07;;;17.30;99.90;;;;;;5033911;28;20274;-67
2021/09/29 12:49:47;;;;;;;5.93;5.50;;;17.60;99.90;;;;;;5034741;28;20170;-67
2021/09/29 12:52:29;;;;;;;5.30;4.80;;;17.90;99.90;;;;;;5034857;28;20188;-67
2021/09/29 12:54:57;;;;;;;11.17;4.80;;;18.00;99.90;;;;;;5034521;28;20178;-68
2021/09/29 12:57:24;;;;;;;5.37;5.07;;;18.00;99.90;;;;;;5035046;28;20168;-66
2021/09/29 12:59:50;;;;;;;9.60;6.97;;;17.80;99.90;;;;;;5034745;28;20172;-66
2021/09/29 13:02:16;;;;;;;5.53;5.03;;;16.20;99.90;;;;;;5034868;28;20198;-66
2021/09/29 13:04:42;;;;;;;5.37;4.97;;;14.60;99.90;;;;;;5034827;28;20171;-67
2021/09/29 13:07:07;;;;;;;5.80;5.50;;;13.60;99.90;;;;;;5034478;28;20215;-67
2021/09/29 13:09:33;;;;;;;6.10;5.60;;;12.70;99.90;;;;;;5034422;28;20182;-67
2021/09/29 13:11:59;;;;;;;6.30;5.70;;;11.90;99.90;;;;;;5034292;28;20192;-66
2021/09/29 13:14:24;;;;;;;6.00;5.50;;;11.50;99.90;;;;;;5034529;28;20178;-65
2021/09/29 13:16:50;;;;;;;7.20;6.00;;;11.20;99.90;;;;;;5034205;28;20179;-66
2021/09/29 13:19:21;;;;;;;6.83;6.23;;;11.00;99.90;;;;;;5034259;28;20183;-65
2021/09/29 13:21:56;;;;;;;6.87;6.10;;;10.90;99.90;;;;;;5034292;28;20245;-67
2021/09/29 13:35:16;;;;;;;6.90;6.30;;;11.30;99.90;;;;;;5033906;28;20706;-67
2021/09/29 13:37:41;;;;;;;6.50;6.10;;;11.30;99.90;;;;;;5033383;28;20171;-66
2021/09/29 13:40:07;;;;;;;7.03;6.63;;;11.60;99.90;;;;;;5031895;28;20640;-65
2021/09/29 13:42:33;;;;;;;6.70;6.20;;;11.80;99.90;;;;;;5033879;28;20218;-67
2021/09/29 13:44:59;;;;;;;5.87;5.50;;;12.50;99.90;;;;;;5032456;28;20179;-66
2021/09/29 13:47:26;;;;;;;5.70;5.40;;;13.20;99.90;;;;;;5033763;28;20199;-66
2021/09/29 13:49:51;;;;;;;8.03;7.43;;;13.90;99.90;;;;;;5033683;28;20168;-67
2021/09/29 13:52:22;;;;;;;5.93;5.53;;;14.30;99.90;;;;;;5033722;28;20283;-67
2021/09/29 13:54:50;;;;;;;5.63;5.23;;;14.60;99.90;;;;;;5033759;28;20431;-66
2021/09/29 13:57:19;;;;;;;5.17;4.90;;;14.90;99.90;;;;;;5033123;28;20233;-67
2021/09/29 14:02:49;;;;;;;6.33;5.27;;;15.50;99.90;;;;;;5033565;28;20265;-66
2021/09/29 14:30:02;;;;;;;8.37;5.70;;;16.40;99.90;;;;;;5032638;28;20178;-66
2021/09/29 14:33:17;;;;;;;6.60;5.83;;;16.40;99.90;;;;;;5032970;28;20253;-66
2021/09/29 14:35:13;;;;;;;6.20;5.73;;;16.70;99.90;;;;;;5025387;28;20552;-66
2021/09/29 14:37:39;;;;;;;5.60;5.10;;;17.00;99.90;;;;;;5032856;28;20175;-66
2021/09/29 14:40:05;;;;;;;5.77;5.23;;;17.00;99.90;;;;;;5031315;28;20179;-66
2021/09/29 14:42:30;;;;;;;6.93;5.20;;;16.70;99.90;;;;;;5032632;28;20214;-67
2021/09/29 14:44:56;;;;;;;5.70;5.30;;;16.30;99.90;;;;;;5031910;28;20254;-66
2021/09/29 14:47:22;;;;;;;5.87;5.47;;;16.00;99.90;;;;;;5032154;28;20661;-67
2021/09/29 14:49:47;;;;;;;8.17;5.83;;;15.60;99.90;;;;;;5031919;28;20221;-67
2021/09/29 14:52:14;;;;;;;6.10;5.50;;;15.30;99.90;;;;;;5032501;28;20249;-67
2021/09/29 14:54:40;;;;;;;6.53;5.50;;;15.10;99.90;;;;;;5032595;28;20182;-67
2021/09/29 14:57:10;;;;;;;8.80;5.80;;;15.10;99.90;;;;;;5032397;28;20187;-66
2021/09/29 14:59:47;;;;;;;5.80;5.30;;;15.00;99.90;;;;;;5032406;28;20259;-66
2021/09/29 15:02:14;;;;;;;5.73;5.40;;;15.00;99.90;;;;;;5032225;28;20199;-66
2021/09/29 15:04:40;;;;;;;5.23;4.93;;;14.80;99.90;;;;;;5032467;28;20168;-67
2021/09/29 15:07:06;;;;;;;5.60;5.20;;;14.80;99.90;;;;;;5032287;28;20214;-65
2021/09/29 15:09:32;;;;;;;6.10;5.50;;;14.60;99.90;;;;;;5041172;28;20177;-65
2021/09/29 15:11:58;;;;;;;5.47;5.10;;;14.50;99.90;;;;;;5052017;28;20193;-66
2021/09/29 15:16:57;;;;;;;6.83;6.20;;;14.30;99.90;;;;;;5051826;28;20171;-67
2021/09/29 15:48:47;;;;;;;6.30;5.70;;;15.60;99.90;;;;;;5071780;28;20260;-65
2021/09/29 16:01:49;;;;;;;5.77;5.30;;;16.00;99.90;;;;;;5070756;28;20268;-65
2021/09/29 16:30:43;;;;;;;7.33;5.87;;;14.90;99.90;;;;;;5071045;28;20717;-65
2021/09/29 16:35:37;;;;;;;6.80;5.70;;;14.80;99.90;;;;;;5071392;28;20170;-65
2021/09/29 16:38:03;;;;;;;6.07;5.50;;;14.70;99.90;;;;;;5071169;28;20278;-64
2021/09/29 16:40:29;;;;;;;6.73;6.03;;;14.50;99.90;;;;;;5070033;28;20200;-65
2021/09/29 16:42:57;;;;;;;6.00;5.50;;;14.30;99.90;;;;;;5070966;28;20198;-64
2021/09/29 16:45:25;;;;;;;5.67;5.27;;;14.10;99.90;;;;;;5071077;28;20190;-65
2021/09/29 16:47:52;;;;;;;6.10;5.70;;;14.00;99.90;;;;;;5071028;28;20666;-64